Puritan, Pennsylvania
Current Conditions -  °F | °C
As of 6:54 PM on Saturday 22 Nov 2014 (Local Time) from KJST Reporting Station
Overcast Overcast  
Wind Chill: 40°   Ceiling: 5000
Heat Index: 45°   Visibility: 10mi
Dew Point: 28°   Wind: 10mph
Humidity: 52%   Direction: 220°SW
Pressure: 30.14"   Gusts: NA
Location:  40.3821°N, 78.6524°W
Report Text: KJST 222354Z AUTO 22009KT 10SM OVC050 07/M02 A3014 RMK AO2 SLP229 60000 T00721022 10072 20039 56007
Loading
Personal Weather Stations






























Interactive Weather Map New forecast layout! Learn more

10-Day Weather Forecast

Advertisements
Track Severe Weather on mobile